Time;durP1;ratioP1;P1;durP2;ratioP2;P2;SDS_P1;SDS_P2;PMS_P1;PMS_P2;Temp;Humidity;BMP_temperature;BMP_pressure;BME280_temperature;BME280_humidity;BME280_pressure;Samples;Min_cycle;Max_cycle;Signal;HPM_P1;HPM_P2
2023/07/05 00:02:21;;;;;;;0.90;0.68;;;;;;;21.21;65.39;99849.66;4483572;31;33820;-88
2023/07/05 00:04:49;;;;;;;5.50;1.23;;;;;;;21.27;65.05;99852.78;4484619;31;33503;-88
2023/07/05 00:07:17;;;;;;;1.70;0.88;;;;;;;21.16;65.31;99851.88;4469464;31;33791;-88
2023/07/05 00:09:44;;;;;;;1.05;1.05;;;;;;;21.20;65.07;99842.59;4478137;31;32794;-87
2023/07/05 00:12:12;;;;;;;0.50;0.25;;;;;;;21.08;65.48;99851.72;4469934;31;32913;-87
2023/07/05 00:14:40;;;;;;;0.45;0.45;;;;;;;21.02;65.47;99852.22;4462924;31;32565;-87
2023/07/05 00:17:07;;;;;;;0.30;0.30;;;;;;;21.03;65.37;99855.75;4483505;31;33955;-86
2023/07/05 00:19:35;;;;;;;0.20;0.20;;;;;;;21.09;65.26;99853.44;4459436;31;33377;-87
2023/07/05 00:22:03;;;;;;;0.75;0.75;;;;;;;21.11;64.78;99846.06;4459022;31;32667;-87
2023/07/05 00:24:31;;;;;;;0.75;0.30;;;;;;;21.14;64.65;99839.59;4464203;31;32976;-87
2023/07/05 00:26:59;;;;;;;2.28;1.20;;;;;;;21.05;64.85;99840.41;4457518;31;32834;-88
2023/07/05 00:29:26;;;;;;;0.10;0.10;;;;;;;20.95;65.31;99843.88;4475358;31;32942;-88
2023/07/05 00:31:54;;;;;;;0.68;0.57;;;;;;;20.97;65.13;99841.03;4467910;31;34720;-88
2023/07/05 00:34:23;;;;;;;0.47;0.47;;;;;;;21.01;65.16;99834.44;4472625;31;33045;-88
2023/07/05 00:36:51;;;;;;;2.55;0.95;;;;;;;21.05;64.87;99845.75;4482812;31;33640;-89
2023/07/05 00:39:20;;;;;;;0.57;0.57;;;;;;;21.05;64.77;99843.09;4474341;31;32202;-89
2023/07/05 00:41:47;;;;;;;0.65;0.65;;;;;;;20.89;65.16;99851.63;4487716;31;33358;-89
2023/07/05 00:44:15;;;;;;;1.17;0.80;;;;;;;20.92;64.97;99844.12;4491374;31;36552;-88
2023/07/05 00:46:48;;;;;;;0.45;0.45;;;;;;;20.92;64.99;99851.34;4471861;31;32690;-88
2023/07/05 00:49:18;;;;;;;0.52;0.52;;;;;;;20.89;65.05;99854.31;4460120;31;31984;-88
2023/07/05 00:51:50;;;;;;;0.28;0.28;;;;;;;20.80;65.31;99847.03;4468518;31;34534;-88
2023/07/05 00:54:26;;;;;;;0.85;0.62;;;;;;;20.89;64.98;99846.25;4474324;31;32887;-88
2023/07/05 00:57:04;;;;;;;0.68;0.68;;;;;;;20.83;65.08;99841.37;4485087;31;33558;-88
2023/07/05 00:59:38;;;;;;;0.35;0.35;;;;;;;20.81;65.25;99843.38;4468591;31;32405;-88
2023/07/05 01:02:06;;;;;;;1.75;1.65;;;;;;;20.70;65.50;99845.12;4467879;31;31438;-88
2023/07/05 01:04:34;;;;;;;0.85;0.85;;;;;;;20.78;65.01;99847.16;4469519;31;33333;-89
2023/07/05 01:07:02;;;;;;;1.10;1.00;;;;;;;20.70;65.24;99842.44;4454825;31;32181;-88
2023/07/05 01:09:31;;;;;;;1.23;1.00;;;;;;;20.52;66.05;99841.31;4469849;31;31938;-87
2023/07/05 01:12:17;;;;;;;0.57;0.25;;;;;;;20.57;65.76;99832.87;4472987;31;32382;-86
2023/07/05 01:14:57;;;;;;;1.95;0.90;;;;;;;20.68;65.27;99841.72;4487707;31;33689;-86
2023/07/05 01:17:50;;;;;;;0.77;0.73;;;;;;;20.62;65.56;99834.19;4483976;31;32912;-87
2023/07/05 01:20:46;;;;;;;0.75;0.75;;;;;;;20.60;65.44;99840.66;4484975;31;34059;-87
2023/07/05 01:23:52;;;;;;;0.45;0.45;;;;;;;20.59;65.43;99842.50;4482251;31;33017;-86
2023/07/05 01:26:46;;;;;;;2.40;0.40;;;;;;;20.57;65.18;99838.25;4486305;31;33529;-87
2023/07/05 01:29:51;;;;;;;2.55;0.80;;;;;;;20.46;65.88;99833.75;4466086;31;34045;-86
2023/07/05 01:32:29;;;;;;;0.75;0.75;;;;;;;20.51;65.52;99836.06;4492595;31;33080;-87
2023/07/05 01:35:08;;;;;;;0.30;0.30;;;;;;;20.56;65.21;99824.00;4472839;31;33975;-86
2023/07/05 01:37:40;;;;;;;0.50;0.50;;;;;;;20.41;65.60;99825.22;4468387;31;33332;-86
2023/07/05 01:40:21;;;;;;;1.02;0.70;;;;;;;20.41;65.63;99827.91;4485403;31;33105;-87
2023/07/05 01:42:52;;;;;;;1.77;0.77;;;;;;;20.42;65.73;99829.62;4492222;31;32133;-87
2023/07/05 01:45:27;;;;;;;1.58;0.95;;;;;;;20.46;65.35;99837.28;4473881;31;33422;-87
2023/07/05 01:47:58;;;;;;;1.85;1.12;;;;;;;20.26;65.64;99837.25;4487441;31;35184;-88
2023/07/05 01:50:36;;;;;;;0.82;0.82;;;;;;;20.23;65.88;99824.97;4469911;31;33214;-88
2023/07/05 01:53:17;;;;;;;0.40;0.40;;;;;;;20.37;65.60;99826.50;4469663;31;32546;-89
2023/07/05 01:56:09;;;;;;;2.85;0.57;;;;;;;20.33;65.28;99830.41;4478676;31;33341;-89
2023/07/05 01:58:41;;;;;;;0.88;0.65;;;;;;;20.27;65.26;99830.91;4445710;31;32818;-89
2023/07/05 02:01:11;;;;;;;2.62;1.40;;;;;;;20.32;65.30;99828.69;4485862;31;33928;-89
2023/07/05 02:03:41;;;;;;;0.77;0.77;;;;;;;20.19;65.64;99819.00;4478635;31;31841;-86
2023/07/05 02:06:10;;;;;;;1.10;1.00;;;;;;;20.26;65.51;99824.69;4484530;31;34169;-86
2023/07/05 02:08:43;;;;;;;0.43;0.43;;;;;;;20.37;64.94;99821.13;4488091;31;34087;-86
2023/07/05 02:11:11;;;;;;;0.08;0.08;;;;;;;20.26;65.20;99829.19;4460859;31;32386;-88
2023/07/05 02:13:39;;;;;;;0.52;0.52;;;;;;;20.17;65.38;99828.97;4458138;31;32474;-88
2023/07/05 02:16:06;;;;;;;3.78;1.10;;;;;;;20.09;65.59;99819.91;4455505;31;33162;-88
2023/07/05 02:18:34;;;;;;;1.30;0.75;;;;;;;20.00;65.73;99823.34;4486740;31;33355;-87
2023/07/05 02:21:08;;;;;;;1.08;0.98;;;;;;;19.97;66.14;99824.44;4475084;31;33566;-87
2023/07/05 02:23:36;;;;;;;0.60;0.60;;;;;;;20.15;65.79;99822.91;4464901;31;32044;-87
2023/07/05 02:26:06;;;;;;;1.85;1.40;;;;;;;20.16;65.32;99821.94;4470852;31;32902;-87
2023/07/05 02:28:34;;;;;;;1.27;0.95;;;;;;;20.03;65.86;99826.59;4465443;31;32891;-86
2023/07/05 02:31:11;;;;;;;0.55;0.40;;;;;;;20.13;65.43;99819.53;4470794;31;33995;-86
2023/07/05 02:33:41;;;;;;;0.73;0.73;;;;;;;20.08;65.55;99823.53;4484451;31;32185;-87
2023/07/05 02:36:11;;;;;;;1.80;1.70;;;;;;;19.97;65.79;99815.53;4471784;31;32670;-87
2023/07/05 02:38:40;;;;;;;0.85;0.47;;;;;;;19.99;65.59;99819.81;4484885;31;34648;-86
2023/07/05 02:41:08;;;;;;;0.65;0.65;;;;;;;19.97;65.78;99813.72;4471555;31;33759;-89
2023/07/05 02:43:37;;;;;;;1.15;0.40;;;;;;;19.93;65.89;99820.28;4472645;31;33035;-88
2023/07/05 02:46:05;;;;;;;2.20;1.00;;;;;;;19.89;65.92;99814.34;4467799;31;33087;-89
2023/07/05 02:48:33;;;;;;;0.50;0.50;;;;;;;19.84;66.09;99819.22;4467267;31;33233;-89
2023/07/05 02:51:01;;;;;;;0.17;0.17;;;;;;;19.93;65.62;99820.28;4463894;31;32479;-89
2023/07/05 02:53:28;;;;;;;0.57;0.55;;;;;;;19.83;66.04;99819.34;4454492;31;31938;-89
2023/07/05 02:55:56;;;;;;;0.50;0.50;;;;;;;19.82;66.04;99821.19;4486629;31;33653;-89
2023/07/05 02:58:24;;;;;;;0.62;0.62;;;;;;;19.89;65.69;99822.41;4474275;31;34411;-88
2023/07/05 03:00:52;;;;;;;0.28;0.28;;;;;;;19.84;65.89;99823.72;4470721;31;32926;-89
2023/07/05 03:03:21;;;;;;;0.55;0.50;;;;;;;19.85;65.65;99820.94;4483385;31;32101;-89
2023/07/05 03:06:00;;;;;;;2.33;1.27;;;;;;;19.79;66.04;99825.94;4457996;31;32379;-89
2023/07/05 03:08:28;;;;;;;0.55;0.55;;;;;;;19.72;66.29;99819.38;4469413;31;33487;-88
2023/07/05 03:10:58;;;;;;;1.15;1.05;;;;;;;19.65;66.76;99825.25;4472628;31;33347;-88
2023/07/05 03:13:28;;;;;;;1.17;1.17;;;;;;;19.74;66.42;99822.78;4461566;31;31972;-88
2023/07/05 03:15:57;;;;;;;0.28;0.28;;;;;;;19.76;66.42;99826.19;4472899;31;33463;-87
2023/07/05 03:18:26;;;;;;;0.22;0.22;;;;;;;19.74;66.47;99822.78;4477216;31;32871;-87
2023/07/05 03:20:53;;;;;;;4.93;1.52;;;;;;;19.62;66.67;99820.13;4475999;31;33532;-87
2023/07/05 03:23:21;;;;;;;1.75;0.55;;;;;;;19.62;66.76;99813.94;4471634;31;32599;-88
2023/07/05 03:26:02;;;;;;;0.20;0.20;;;;;;;19.68;66.79;99824.13;4471707;31;34381;-89
2023/07/05 03:28:32;;;;;;;0.98;0.88;;;;;;;19.73;66.50;99821.94;4443177;31;32379;-89
2023/07/05 03:31:02;;;;;;;1.05;1.02;;;;;;;20.11;65.08;99821.47;4471327;31;33374;-88
2023/07/05 03:33:30;;;;;;;0.60;0.60;;;;;;;20.26;64.53;99807.75;4482031;31;34075;-88
2023/07/05 03:36:01;;;;;;;0.40;0.40;;;;;;;20.13;64.92;99813.28;4468896;31;32371;-88
2023/07/05 03:38:29;;;;;;;0.32;0.32;;;;;;;19.89;66.07;99822.41;4471492;31;32572;-89
2023/07/05 03:40:57;;;;;;;1.73;0.45;;;;;;;19.80;66.98;99820.47;4459053;31;34248;-86
2023/07/05 03:43:26;;;;;;;0.95;0.57;;;;;;;19.76;67.67;99826.19;4492359;31;33780;-86
2023/07/05 03:45:53;;;;;;;0.65;0.65;;;;;;;20.31;65.05;99822.47;4470064;31;34595;-86
2023/07/05 03:48:21;;;;;;;1.80;0.88;;;;;;;20.53;64.26;99815.34;4470143;31;33349;-86
2023/07/05 03:50:49;;;;;;;0.95;0.95;;;;;;;20.39;64.70;99824.53;4486787;31;33912;-87
2023/07/05 03:53:17;;;;;;;2.05;0.93;;;;;;;20.14;66.08;99825.72;4474161;31;32236;-88
2023/07/05 03:55:44;;;;;;;0.50;0.50;;;;;;;20.50;64.93;99824.50;4487557;31;34257;-88
2023/07/05 03:58:12;;;;;;;1.73;1.30;;;;;;;20.58;64.51;99822.00;4472612;31;34065;-88
2023/07/05 04:00:40;;;;;;;0.77;0.77;;;;;;;20.31;65.75;99827.84;4465359;31;33321;-88
2023/07/05 04:03:08;;;;;;;1.05;0.95;;;;;;;20.39;66.12;99828.06;4482578;31;32916;-86
2023/07/05 04:05:35;;;;;;;1.15;0.77;;;;;;;20.52;66.02;99825.22;4470665;31;34521;-86
2023/07/05 04:08:03;;;;;;;1.42;0.88;;;;;;;20.85;65.23;99826.03;4475129;31;33694;-85
2023/07/05 04:10:31;;;;;;;1.48;0.75;;;;;;;20.91;64.98;99815.59;4485811;31;34510;-87
2023/07/05 04:12:59;;;;;;;0.75;0.75;;;;;;;21.05;64.90;99816.25;4468521;31;32965;-87
2023/07/05 04:15:26;;;;;;;1.95;1.23;;;;;;;21.12;64.96;99828.97;4469122;32;33810;-86
2023/07/05 04:17:54;;;;;;;1.02;1.02;;;;;;;21.17;65.09;99823.19;4473821;31;33988;-87
2023/07/05 04:20:22;;;;;;;0.80;0.80;;;;;;;21.41;64.23;99828.28;4471645;31;33310;-88
2023/07/05 04:22:50;;;;;;;3.12;1.40;;;;;;;21.42;64.35;99824.63;4470508;31;32845;-88
2023/07/05 04:25:18;;;;;;;1.08;0.43;;;;;;;21.67;63.50;99818.78;4470507;31;32695;-87
2023/07/05 04:27:45;;;;;;;0.82;0.82;;;;;;;21.62;64.17;99823.72;4459529;31;32957;-88
2023/07/05 04:30:13;;;;;;;1.30;0.95;;;;;;;21.79;63.64;99822.22;4482501;31;34208;-88
2023/07/05 04:32:41;;;;;;;0.65;0.65;;;;;;;22.08;62.68;99838.38;4472238;31;37055;-87
2023/07/05 04:35:09;;;;;;;2.60;0.80;;;;;;;22.29;61.85;99829.38;4469075;31;33406;-87
2023/07/05 04:37:37;;;;;;;1.08;1.05;;;;;;;22.09;62.91;99833.84;4467831;31;32919;-87
2023/07/05 04:40:05;;;;;;;0.55;0.55;;;;;;;22.15;63.38;99838.69;4482076;31;34153;-88
2023/07/05 04:42:33;;;;;;;0.50;0.50;;;;;;;22.22;63.19;99835.31;4483856;31;33453;-87
2023/07/05 04:45:01;;;;;;;2.37;0.88;;;;;;;22.22;63.52;99842.53;4471829;31;33582;-88
2023/07/05 04:47:29;;;;;;;0.73;0.73;;;;;;;22.43;63.03;99845.06;4469919;31;32529;-87
2023/07/05 04:49:57;;;;;;;0.85;0.73;;;;;;;22.68;62.23;99839.09;4482219;31;33206;-87
2023/07/05 04:52:24;;;;;;;1.23;0.77;;;;;;;22.81;61.31;99840.66;4486223;31;33290;-87
2023/07/05 04:54:54;;;;;;;0.90;0.77;;;;;;;22.99;60.99;99845.19;4479825;31;34283;-87
2023/07/05 04:57:21;;;;;;;0.62;0.62;;;;;;;23.04;61.39;99841.22;4471291;31;34675;-87
2023/07/05 05:00:05;;;;;;;5.50;0.90;;;;;;;23.03;61.48;99845.75;4494504;31;32817;-86
2023/07/05 05:02:33;;;;;;;1.85;1.23;;;;;;;22.85;62.49;99836.69;4486535;31;32807;-86
2023/07/05 05:05:02;;;;;;;3.10;1.50;;;;;;;22.88;62.69;99841.75;4486657;31;33746;-87
2023/07/05 05:07:29;;;;;;;0.85;0.85;;;;;;;23.18;61.80;99841.59;4455008;31;33496;-86
2023/07/05 05:09:59;;;;;;;1.08;0.98;;;;;;;23.30;61.86;99841.41;4471883;31;34766;-86
2023/07/05 05:12:27;;;;;;;1.12;1.02;;;;;;;23.31;61.57;99843.09;4479038;31;33423;-87
2023/07/05 05:14:54;;;;;;;1.48;0.70;;;;;;;23.49;61.35;99835.94;4457162;31;33433;-87
2023/07/05 05:17:22;;;;;;;2.92;2.65;;;;;;;23.77;60.33;99840.34;4471233;31;33613;-88
2023/07/05 05:19:50;;;;;;;1.40;1.37;;;;;;;23.93;60.22;99836.16;4471686;31;34241;-88
2023/07/05 05:22:17;;;;;;;3.35;0.55;;;;;;;23.87;60.17;99834.06;4465767;31;33591;-88
2023/07/05 05:24:45;;;;;;;3.37;1.17;;;;;;;23.51;61.49;99842.88;4467455;31;33356;-87
2023/07/05 05:27:13;;;;;;;1.08;0.95;;;;;;;23.77;60.86;99844.91;4478204;31;32655;-87
2023/07/05 05:29:40;;;;;;;2.78;1.55;;;;;;;23.89;60.75;99838.31;4483144;31;32662;-87
2023/07/05 05:32:10;;;;;;;1.67;1.20;;;;;;;23.85;60.34;99836.91;4455133;31;32027;-86
2023/07/05 05:34:38;;;;;;;4.95;1.92;;;;;;;23.75;60.08;99839.66;4474428;31;34685;-86
2023/07/05 05:37:05;;;;;;;4.20;1.33;;;;;;;23.65;60.30;99843.41;4460198;31;33446;-86
2023/07/05 05:39:33;;;;;;;2.03;1.20;;;;;;;24.09;59.24;99832.78;4489116;31;33431;-86
2023/07/05 05:42:02;;;;;;;1.20;1.15;;;;;;;24.44;58.74;99837.38;4472948;31;32705;-86
2023/07/05 05:44:29;;;;;;;1.85;1.20;;;;;;;24.46;58.84;99838.06;4484816;31;34458;-86
2023/07/05 05:46:57;;;;;;;1.45;1.37;;;;;;;24.39;59.01;99832.44;4484098;31;34305;-87
2023/07/05 05:49:25;;;;;;;2.42;1.77;;;;;;;24.85;58.22;99825.03;4471994;31;33210;-88
2023/07/05 05:51:53;;;;;;;1.75;1.15;;;;;;;25.22;56.89;99827.50;4485751;31;33118;-87
2023/07/05 05:54:20;;;;;;;3.30;2.37;;;;;;;25.08;57.56;99830.81;4467832;31;32437;-88
2023/07/05 05:56:48;;;;;;;1.45;1.10;;;;;;;25.42;57.18;99821.88;4471001;31;32486;-88
2023/07/05 05:59:16;;;;;;;2.60;1.25;;;;;;;25.50;57.17;99821.91;4470556;31;33460;-88
2023/07/05 06:01:44;;;;;;;1.52;1.40;;;;;;;25.33;57.10;99823.69;4455195;31;32339;-88
2023/07/05 06:04:14;;;;;;;1.33;1.23;;;;;;;25.60;56.38;99813.66;4484252;31;34940;-88
2023/07/05 06:06:41;;;;;;;1.15;1.05;;;;;;;25.93;56.24;99815.50;4472141;31;32674;-88
2023/07/05 06:09:10;;;;;;;0.47;0.47;;;;;;;26.00;54.60;99815.66;4485841;31;33913;-88
2023/07/05 06:11:38;;;;;;;0.45;0.45;;;;;;;26.10;54.79;99807.38;4473267;31;33278;-88
2023/07/05 06:14:10;;;;;;;1.20;1.02;;;;;;;26.22;54.11;99806.91;4464845;31;33008;-87
2023/07/05 06:16:38;;;;;;;2.60;2.08;;;;;;;26.01;53.52;99811.94;4474061;31;34771;-88
2023/07/05 06:19:06;;;;;;;2.47;2.10;;;;;;;26.37;52.25;99808.97;4483375;31;33477;-88
2023/07/05 06:21:34;;;;;;;2.22;1.85;;;;;;;26.43;53.18;99803.72;4490507;31;33410;-86
2023/07/05 06:24:02;;;;;;;0.85;0.85;;;;;;;26.50;52.21;99806.62;4470907;31;32694;-86
2023/07/05 06:26:30;;;;;;;1.17;1.12;;;;;;;26.99;50.97;99801.16;4484236;31;33528;-86
2023/07/05 06:28:57;;;;;;;13.48;2.97;;;;;;;26.83;52.31;99803.91;4476179;31;33233;-86
2023/07/05 06:31:29;;;;;;;0.98;0.88;;;;;;;26.54;52.08;99807.97;4470303;31;32711;-88
2023/07/05 06:33:57;;;;;;;2.42;1.33;;;;;;;27.11;52.99;99801.66;4482287;31;34175;-87
2023/07/05 06:36:27;;;;;;;1.10;0.70;;;;;;;27.33;50.33;99806.31;4472710;31;32499;-86
2023/07/05 06:38:54;;;;;;;1.35;1.25;;;;;;;27.37;50.22;99804.13;4481702;31;34229;-89
2023/07/05 06:41:22;;;;;;;2.97;1.08;;;;;;;26.99;51.44;99807.41;4464224;31;31934;-87
2023/07/05 06:43:50;;;;;;;1.92;1.52;;;;;;;26.90;51.61;99796.75;4487191;31;34914;-90
2023/07/05 06:46:18;;;;;;;2.60;1.30;;;;;;;27.52;51.23;99803.19;4464954;31;32479;-90
2023/07/05 06:48:46;;;;;;;2.12;1.33;;;;;;;27.77;49.38;99795.84;4471178;31;33117;-90
2023/07/05 06:51:14;;;;;;;7.47;1.60;;;;;;;27.65;50.69;99794.50;4475317;31;33673;-89
2023/07/05 06:53:41;;;;;;;5.20;1.67;;;;;;;27.36;50.16;99791.59;4470861;31;34208;-89
2023/07/05 06:56:16;;;;;;;1.23;1.12;;;;;;;27.60;49.05;99788.75;4471856;31;33262;-90
2023/07/05 06:58:46;;;;;;;2.03;1.45;;;;;;;28.03;49.05;99784.62;4474854;31;33564;-89
2023/07/05 07:01:14;;;;;;;3.15;1.77;;;;;;;27.73;48.98;99788.22;4466470;31;31662;-90
2023/07/05 07:03:42;;;;;;;1.75;1.48;;;;;;;28.19;49.98;99783.66;4474511;31;33626;-90
2023/07/05 07:06:10;;;;;;;1.67;1.58;;;;;;;28.09;49.34;99788.50;4472783;31;33608;-90
2023/07/05 07:08:38;;;;;;;2.15;1.10;;;;;;;28.57;47.34;99781.84;4458070;31;32747;-89
2023/07/05 07:11:07;;;;;;;2.58;1.58;;;;;;;28.71;46.80;99788.34;4457411;31;32734;-89
2023/07/05 07:13:35;;;;;;;3.00;1.85;;;;;;;28.18;48.02;99787.41;4464284;31;34491;-90
2023/07/05 07:16:10;;;;;;;0.70;0.68;;;;;;;27.43;48.11;99785.25;4471261;31;32825;-90
2023/07/05 07:18:42;;;;;;;1.67;1.02;;;;;;;27.97;48.01;99779.94;4460993;31;32721;-90
2023/07/05 07:21:10;;;;;;;1.35;1.25;;;;;;;28.12;48.35;99782.72;4487174;31;33364;-90
2023/07/05 07:23:38;;;;;;;2.92;1.35;;;;;;;28.61;47.72;99776.91;4471361;31;33475;-89
2023/07/05 07:26:08;;;;;;;3.42;2.05;;;;;;;28.43;46.69;99782.66;4457362;31;33613;-89
2023/07/05 07:28:37;;;;;;;1.48;1.37;;;;;;;28.07;47.82;99785.13;4487052;31;32889;-90
2023/07/05 07:31:12;;;;;;;2.37;2.17;;;;;;;28.29;46.32;99781.56;4468232;31;33724;-90
2023/07/05 07:33:40;;;;;;;2.53;1.45;;;;;;;28.82;46.46;99785.22;4462922;31;32989;-89
2023/07/05 07:36:14;;;;;;;1.00;1.00;;;;;;;28.87;47.28;99784.66;4469856;31;32877;-89
2023/07/05 07:38:42;;;;;;;2.20;2.00;;;;;;;28.46;46.80;99779.59;4485572;31;33690;-89
2023/07/05 07:41:13;;;;;;;3.83;1.65;;;;;;;28.90;45.61;99786.13;4457439;31;33740;-88
2023/07/05 07:43:41;;;;;;;1.05;0.95;;;;;;;28.89;45.72;99784.47;4474815;31;33051;-89
2023/07/05 07:46:12;;;;;;;1.70;1.60;;;;;;;28.68;45.47;99777.03;4474448;31;33590;-88
2023/07/05 07:48:42;;;;;;;1.08;1.02;;;;;;;28.64;45.70;99779.28;4464367;31;33953;-88
2023/07/05 07:51:10;;;;;;;4.43;1.87;;;;;;;28.81;45.50;99778.06;4469872;31;32807;-88
2023/07/05 07:53:58;;;;;;;3.22;1.45;;;;;;;29.25;44.52;99769.12;4467070;31;34166;-88
2023/07/05 07:56:27;;;;;;;1.35;1.25;;;;;;;29.70;44.68;99767.22;4455606;31;33578;-88
2023/07/05 07:58:57;;;;;;;4.78;1.85;;;;;;;29.63;44.33;99773.63;4465954;31;33639;-88
2023/07/05 08:01:33;;;;;;;2.10;1.75;;;;;;;29.40;43.60;99771.84;4472752;31;33449;-88
2023/07/05 08:04:03;;;;;;;2.95;1.60;;;;;;;29.80;43.83;99767.72;4463308;31;32880;-88
2023/07/05 08:06:49;;;;;;;2.08;1.10;;;;;;;29.57;43.53;99767.03;4466631;31;34515;-86
2023/07/05 08:09:22;;;;;;;2.28;1.08;;;;;;;29.39;43.88;99772.87;4466673;31;33394;-88
2023/07/05 08:11:50;;;;;;;1.17;1.00;;;;;;;29.72;44.10;99776.03;4453963;32;31857;-89
2023/07/05 08:14:18;;;;;;;1.40;1.30;;;;;;;29.90;42.90;99767.41;4453847;31;33751;-89
2023/07/05 08:16:46;;;;;;;6.85;1.00;;;;;;;29.66;43.66;99775.94;4472450;31;33249;-89
2023/07/05 08:19:14;;;;;;;2.40;1.85;;;;;;;29.48;43.07;99768.16;4471328;31;34600;-89
2023/07/05 08:21:44;;;;;;;1.20;1.10;;;;;;;29.51;43.18;99770.50;4467039;31;33797;-89
2023/07/05 08:24:13;;;;;;;2.95;1.55;;;;;;;29.62;42.80;99764.59;4471063;31;34166;-88
2023/07/05 08:26:54;;;;;;;1.70;1.60;;;;;;;29.93;42.34;99763.47;4475543;31;34271;-89
2023/07/05 08:29:22;;;;;;;2.28;1.37;;;;;;;29.35;42.68;99771.56;4487591;31;34240;-89
2023/07/05 08:31:50;;;;;;;1.58;1.35;;;;;;;29.75;42.46;99762.03;4467917;31;34135;-89
2023/07/05 08:34:18;;;;;;;0.85;0.85;;;;;;;30.41;40.54;99764.59;4487238;31;33419;-89
2023/07/05 08:36:46;;;;;;;1.85;0.93;;;;;;;30.34;42.01;99756.38;4477471;31;33659;-89
2023/07/05 08:39:15;;;;;;;1.62;0.82;;;;;;;30.53;42.97;99768.50;4474045;31;34150;-89
2023/07/05 08:41:57;;;;;;;1.45;1.35;;;;;;;30.39;40.93;99760.41;4468676;31;32367;-88
2023/07/05 08:44:24;;;;;;;0.43;0.43;;;;;;;30.32;41.25;99766.63;4479880;31;32854;-89
2023/07/05 08:47:00;;;;;;;3.22;1.52;;;;;;;30.18;40.94;99777.59;4490136;31;34784;-88
2023/07/05 08:49:35;;;;;;;1.23;1.12;;;;;;;30.41;40.86;99772.78;4468558;31;34162;-89
2023/07/05 08:52:04;;;;;;;1.85;1.65;;;;;;;30.94;39.28;99769.66;4465656;31;32185;-89
2023/07/05 08:54:32;;;;;;;1.77;0.60;;;;;;;30.42;41.12;99771.72;4468360;31;33012;-89
2023/07/05 08:57:10;;;;;;;2.40;1.83;;;;;;;30.72;39.41;99772.44;4463642;31;33753;-89
2023/07/05 08:59:46;;;;;;;1.42;1.20;;;;;;;30.49;40.50;99772.66;4495373;31;33862;-89
2023/07/05 09:02:17;;;;;;;0.62;0.60;;;;;;;30.04;40.17;99773.84;4468634;31;32222;-88
2023/07/05 09:04:47;;;;;;;0.57;0.55;;;;;;;30.60;39.64;99768.53;4472601;31;32279;-89
2023/07/05 09:07:41;;;;;;;0.77;0.77;;;;;;;30.60;39.43;99768.53;4474759;31;33695;-89
2023/07/05 09:10:22;;;;;;;1.00;1.00;;;;;;;30.58;40.66;99765.19;4472792;31;33513;-89
2023/07/05 09:13:20;;;;;;;1.27;1.15;;;;;;;30.52;40.80;99772.25;4475459;31;33360;-89
2023/07/05 09:15:56;;;;;;;3.97;1.90;;;;;;;30.48;40.03;99767.38;4485856;31;33964;-89
2023/07/05 09:18:52;;;;;;;5.90;3.25;;;;;;;30.33;39.83;99762.84;4473660;31;33928;-89
2023/07/05 09:21:33;;;;;;;2.10;1.02;;;;;;;30.94;40.17;99766.91;4472611;31;32960;-89
2023/07/05 09:24:11;;;;;;;3.23;1.57;;;;;;;30.63;40.16;99759.97;4457883;31;32225;-89
2023/07/05 09:26:44;;;;;;;1.92;1.75;;;;;;;31.32;40.20;99751.84;4474740;31;33586;-89
2023/07/05 09:29:39;;;;;;;0.55;0.55;;;;;;;30.62;39.58;99761.00;4467916;31;33578;-89
2023/07/05 09:32:31;;;;;;;2.42;1.45;;;;;;;31.07;37.75;99756.09;4473384;31;33281;-89
2023/07/05 09:34:59;;;;;;;0.95;0.95;;;;;;;30.97;39.13;99747.44;4463078;31;33400;-89
2023/07/05 09:37:31;;;;;;;3.65;2.72;;;;;;;30.93;39.49;99757.06;4472383;31;34563;-89
2023/07/05 09:40:18;;;;;;;0.83;0.83;;;;;;;31.39;38.54;99749.16;4467324;31;33089;-89
2023/07/05 09:42:57;;;;;;;3.53;1.62;;;;;;;31.35;37.34;99751.47;4460847;31;33156;-89
2023/07/05 09:45:25;;;;;;;2.05;1.30;;;;;;;31.76;36.63;99736.06;4461593;31;31510;-89
2023/07/05 09:48:12;;;;;;;2.08;1.30;;;;;;;31.24;37.87;99738.38;4460282;31;34509;-89
2023/07/05 09:50:48;;;;;;;1.55;1.00;;;;;;;31.01;38.10;99743.28;4473184;31;34356;-88
2023/07/05 09:53:50;;;;;;;1.23;1.12;;;;;;;31.02;38.85;99740.34;4474243;31;34708;-88
2023/07/05 09:56:30;;;;;;;3.17;1.60;;;;;;;30.56;38.04;99740.00;4489011;31;33584;-89
2023/07/05 09:59:16;;;;;;;0.82;0.82;;;;;;;31.03;37.80;99735.72;4471775;31;33467;-89
2023/07/05 10:01:50;;;;;;;1.33;0.75;;;;;;;31.10;38.77;99733.91;4483659;31;34383;-89
2023/07/05 10:04:18;;;;;;;1.52;1.02;;;;;;;31.48;38.08;99728.00;4464274;31;33223;-89
2023/07/05 10:06:46;;;;;;;2.00;1.00;;;;;;;31.23;38.45;99735.81;4467341;31;32852;-89
2023/07/05 10:09:20;;;;;;;2.45;1.27;;;;;;;30.90;37.78;99735.66;4464819;31;33284;-89
2023/07/05 10:11:59;;;;;;;1.85;1.52;;;;;;;30.41;38.83;99736.53;4469610;31;33576;-89
2023/07/05 10:14:33;;;;;;;2.60;2.03;;;;;;;30.81;38.10;99724.91;4473888;31;33344;-88
2023/07/05 10:17:06;;;;;;;2.58;1.58;;;;;;;30.74;38.74;99734.91;4472817;31;32322;-89
2023/07/05 10:19:41;;;;;;;10.90;1.00;;;;;;;31.10;38.74;99725.72;4464328;31;33426;-90
2023/07/05 10:22:31;;;;;;;1.17;0.98;;;;;;;31.48;37.32;99733.47;4475335;31;34895;-89
2023/07/05 10:25:05;;;;;;;5.03;1.92;;;;;;;31.87;36.23;99722.69;4472081;31;34105;-89
2023/07/05 10:27:36;;;;;;;1.10;1.10;;;;;;;31.51;35.02;99727.59;4486502;31;33109;-89
2023/07/05 10:30:09;;;;;;;5.10;0.68;;;;;;;31.49;34.81;99718.78;4464523;31;33228;-89
2023/07/05 10:32:38;;;;;;;1.25;1.05;;;;;;;31.55;34.67;99721.50;4465492;31;33689;-89
2023/07/05 10:35:23;;;;;;;2.10;1.25;;;;;;;32.00;33.55;99705.50;4487753;31;33811;-89
2023/07/05 10:37:52;;;;;;;0.55;0.55;;;;;;;32.41;34.31;99711.81;4476060;31;32979;-89
2023/07/05 10:40:22;;;;;;;2.83;1.62;;;;;;;32.51;32.30;99709.50;4475033;31;33329;-89
2023/07/05 10:42:52;;;;;;;1.98;1.40;;;;;;;32.71;32.57;99707.59;4471862;31;33108;-89
2023/07/05 10:45:21;;;;;;;1.73;0.85;;;;;;;32.17;34.62;99705.91;4470866;31;34221;-89
2023/07/05 10:47:52;;;;;;;1.48;1.37;;;;;;;32.28;33.90;99708.00;4474915;31;33724;-89
2023/07/05 10:50:23;;;;;;;;;;;;;;;32.24;33.01;99701.31;4464612;31;33082;-89
2023/07/05 10:53:05;;;;;;;1.00;0.98;;;;;;;32.54;32.80;99700.88;4471875;31;34299;-89
2023/07/05 10:56:12;;;;;;;1.25;1.15;;;;;;;32.49;32.47;99712.47;4473059;31;34032;-89
2023/07/05 10:58:45;;;;;;;0.80;0.80;;;;;;;32.21;31.43;99698.97;4454903;31;33580;-89
2023/07/05 11:01:18;;;;;;;3.37;1.52;;;;;;;32.57;30.72;99692.25;4462744;31;32890;-89
2023/07/05 11:03:55;;;;;;;1.80;1.33;;;;;;;32.09;32.46;99698.78;4457914;31;33657;-89
2023/07/05 11:06:24;;;;;;;0.98;0.93;;;;;;;32.10;32.70;99691.44;4455169;31;33041;-89
2023/07/05 11:08:52;;;;;;;1.00;0.60;;;;;;;32.34;33.09;99690.78;4470898;31;32925;-89
2023/07/05 11:11:23;;;;;;;0.60;0.60;;;;;;;32.67;32.19;99687.22;4484211;31;33938;-89
2023/07/05 11:13:53;;;;;;;2.80;1.52;;;;;;;32.42;31.50;99681.53;4462870;31;33814;-89
2023/07/05 11:16:24;;;;;;;1.52;1.35;;;;;;;32.22;31.93;99684.25;4468829;31;33904;-89
2023/07/05 11:19:01;;;;;;;3.92;1.20;;;;;;;32.07;31.80;99675.44;4460704;31;32594;-89
2023/07/05 11:21:44;;;;;;;3.20;1.05;;;;;;;32.67;32.37;99672.69;4472227;31;33909;-89
2023/07/05 11:24:38;;;;;;;0.55;0.55;;;;;;;32.82;32.36;99667.81;4471201;31;33318;-89
2023/07/05 11:27:24;;;;;;;3.85;2.10;;;;;;;32.95;31.38;99669.69;4481925;31;36984;-89
2023/07/05 11:29:52;;;;;;;3.62;2.03;;;;;;;32.80;30.40;99665.28;4475828;31;32334;-89
2023/07/05 11:32:22;;;;;;;1.40;1.05;;;;;;;32.27;31.59;99664.50;4457595;31;33897;-89
2023/07/05 11:34:53;;;;;;;2.15;1.90;;;;;;;32.13;32.31;99671.88;4464465;31;32827;-89
2023/07/05 11:37:21;;;;;;;0.65;0.65;;;;;;;32.26;31.14;99666.41;4469842;31;33291;-89
2023/07/05 11:39:50;;;;;;;0.30;0.30;;;;;;;31.85;32.87;99656.50;4488029;31;33458;-89
2023/07/05 11:42:19;;;;;;;2.42;1.17;;;;;;;32.04;32.65;99656.72;4455959;31;32979;-89
2023/07/05 11:44:55;;;;;;;0.85;0.82;;;;;;;32.12;32.40;99660.09;4470914;31;34232;-89
2023/07/05 11:47:22;;;;;;;4.37;1.92;;;;;;;32.13;32.61;99652.75;4474742;31;33522;-89
2023/07/05 11:50:07;;;;;;;0.62;0.62;;;;;;;32.06;33.33;99650.03;4475475;31;32919;-88
2023/07/05 11:53:11;;;;;;;4.50;1.73;;;;;;;31.94;33.96;99650.84;4471010;31;32419;-89
2023/07/05 11:55:44;;;;;;;1.70;1.02;;;;;;;31.55;34.22;99650.56;4460783;31;33206;-90
2023/07/05 11:58:14;;;;;;;2.83;1.08;;;;;;;31.65;34.52;99650.16;4469836;31;33972;-89